Time;durP1;ratioP1;P1;durP2;ratioP2;P2;SDS_P1;SDS_P2;PMS_P1;PMS_P2;Temp;Humidity;BMP_temperature;BMP_pressure;BME280_temperature;BME280_humidity;BME280_pressure;Samples;Min_cycle;Max_cycle;Signal;HPM_P1;HPM_P2
2022/03/25 00:04:24;;;;;;;25.65;8.80;;;;;;;;;;10433893;28;20041;-73
2022/03/25 00:09:27;;;;;;;23.23;9.25;;;;;;;;;;10437795;28;20069;-73
2022/03/25 00:14:30;;;;;;;19.08;8.80;;;;;;;;;;10430195;28;20254;-73
2022/03/25 00:19:35;;;;;;;22.90;8.27;;;;;;;;;;10424311;28;20037;-73
2022/03/25 00:24:38;;;;;;;27.58;9.18;;;;;;;;;;10436227;28;20044;-73
2022/03/25 00:29:41;;;;;;;24.73;8.48;;;;;;;;;;10430823;28;20052;-72
2022/03/25 00:34:46;;;;;;;21.58;8.60;;;;;;;;;;10437080;28;20079;-74
2022/03/25 00:39:49;;;;;;;27.10;9.57;;;;;;;;;;10444479;28;20652;-72
2022/03/25 00:44:52;;;;;;;24.67;9.15;;;;;;;;;;10448573;28;20068;-73
2022/03/25 00:49:56;;;;;;;20.00;9.13;;;;;;;;;;10443461;28;20048;-73
2022/03/25 00:54:59;;;;;;;24.60;8.70;;;;;;;;;;10441243;28;20061;-74
2022/03/25 01:00:04;;;;;;;20.52;8.52;;;;;;;;;;10445882;28;20045;-73
2022/03/25 01:05:08;;;;;;;27.85;9.63;;;;;;;;;;10446550;28;20575;-72
2022/03/25 01:10:11;;;;;;;17.38;7.70;;;;;;;;;;10442023;28;20080;-73
2022/03/25 01:15:14;;;;;;;21.23;8.00;;;;;;;;;;10444479;28;20065;-74
2022/03/25 01:20:18;;;;;;;21.92;7.38;;;;;;;;;;10443309;28;20045;-74
2022/03/25 01:25:21;;;;;;;;;;;;;;;;;;10430334;28;20494;-73
2022/03/25 01:30:24;;;;;;;25.85;8.25;;;;;;;;;;10432924;28;20462;-74
2022/03/25 01:35:29;;;;;;;18.07;7.27;;;;;;;;;;10436735;28;20168;-72
2022/03/25 01:40:31;;;;;;;;;;;;;;;;;;10437924;28;20095;-73
2022/03/25 01:45:36;;;;;;;23.65;7.82;;;;;;;;;;10434922;28;19960;-72
2022/03/25 01:50:41;;;;;;;20.13;8.00;;;;;;;;;;10430850;28;20037;-73
2022/03/25 01:55:48;;;;;;;18.55;7.93;;;;;;;;;;10442012;28;20117;-73
2022/03/25 02:00:51;;;;;;;21.58;7.55;;;;;;;;;;10432025;28;20158;-73
2022/03/25 02:05:56;;;;;;;22.50;8.53;;;;;;;;;;10482424;22;20117;-74
2022/03/25 02:11:00;;;;;;;19.83;7.78;;;;;;;;;;10493928;28;20420;-73
2022/03/25 02:16:02;;;;;;;21.65;7.35;;;;;;;;;;10481947;28;20029;-73
2022/03/25 02:21:07;;;;;;;23.77;8.27;;;;;;;;;;10449451;28;20082;-73
2022/03/25 02:26:11;;;;;;;19.05;7.22;;;;;;;;;;10455847;28;20094;-71
2022/03/25 02:31:15;;;;;;;;;;;;;;;;;;10452977;28;20205;-73
2022/03/25 02:36:18;;;;;;;16.35;6.65;;;;;;;;;;10460921;28;20040;-72
2022/03/25 02:41:22;;;;;;;19.95;7.50;;;;;;;;;;10453824;28;20082;-74
2022/03/25 02:46:25;;;;;;;16.92;7.38;;;;;;;;;;10464353;28;20506;-73
2022/03/25 02:51:28;;;;;;;17.63;7.13;;;;;;;;;;10460952;28;20420;-73
2022/03/25 02:56:33;;;;;;;14.70;6.90;;;;;;;;;;10456163;28;20044;-74
2022/03/25 03:01:37;;;;;;;12.77;5.47;;;;;;;;;;10449830;28;20071;-74
2022/03/25 03:06:40;;;;;;;16.10;5.30;;;;;;;;;;10459493;28;20036;-73
2022/03/25 03:11:44;;;;;;;14.43;6.40;;;;;;;;;;10449371;28;20045;-73
2022/03/25 03:16:47;;;;;;;;;;;;;;;;;;10455864;28;20041;-73
2022/03/25 03:21:50;;;;;;;15.57;6.13;;;;;;;;;;10458067;28;20021;-74
2022/03/25 03:26:54;;;;;;;17.00;6.95;;;;;;;;;;10454811;28;20029;-74
2022/03/25 03:31:57;;;;;;;15.27;5.75;;;;;;;;;;10447603;28;20041;-74
2022/03/25 03:37:00;;;;;;;16.33;5.78;;;;;;;;;;10458676;28;20086;-75
2022/03/25 03:42:05;;;;;;;20.30;7.32;;;;;;;;;;10452188;28;20040;-74
2022/03/25 03:47:08;;;;;;;17.83;6.40;;;;;;;;;;10466477;28;20090;-73
2022/03/25 03:52:11;;;;;;;14.07;5.60;;;;;;;;;;10457536;28;20064;-73
2022/03/25 03:57:16;;;;;;;22.63;7.65;;;;;;;;;;10459213;28;20041;-72
2022/03/25 04:02:19;;;;;;;13.80;5.45;;;;;;;;;;10455774;28;20597;-73
2022/03/25 04:07:22;;;;;;;15.73;6.50;;;;;;;;;;10458871;28;20767;-74
2022/03/25 04:12:27;;;;;;;15.93;5.65;;;;;;;;;;10436044;28;20060;-74
2022/03/25 04:17:30;;;;;;;12.88;3.92;;;;;;;;;;10455871;28;20349;-73
2022/03/25 04:22:34;;;;;;;18.98;5.90;;;;;;;;;;10454202;28;20143;-73
2022/03/25 04:27:47;;;;;;;16.02;4.72;;;;;;;;;;10449594;28;20035;-72
2022/03/25 04:32:50;;;;;;;9.43;3.75;;;;;;;;;;10447963;28;20102;-74
2022/03/25 04:37:53;;;;;;;15.67;4.87;;;;;;;;;;10454904;28;20037;-71
2022/03/25 04:42:58;;;;;;;11.27;5.20;;;;;;;;;;10456778;28;20082;-73
2022/03/25 04:48:01;;;;;;;10.63;4.37;;;;;;;;;;10444961;28;20064;-72
2022/03/25 04:53:04;;;;;;;6.63;2.78;;;;;;;;;;10449674;28;20493;-73
2022/03/25 04:58:09;;;;;;;11.10;4.65;;;;;;;;;;10448830;28;20130;-73
2022/03/25 05:03:13;;;;;;;13.63;5.07;;;;;;;;;;10460065;28;20538;-73
2022/03/25 05:08:16;;;;;;;11.60;4.07;;;;;;;;;;10437806;28;20144;-72
2022/03/25 05:13:20;;;;;;;13.53;5.30;;;;;;;;;;10450959;28;20107;-72
2022/03/25 05:18:24;;;;;;;;;;;;;;;;;;10442785;28;20047;-73
2022/03/25 05:23:26;;;;;;;12.33;4.67;;;;;;;;;;10470176;28;19960;-74
2022/03/25 05:28:32;;;;;;;9.95;4.47;;;;;;;;;;10460779;28;20136;-74
2022/03/25 05:33:34;;;;;;;;;;;;;;;;;;10448005;28;20068;-71
2022/03/25 05:38:37;;;;;;;12.33;4.93;;;;;;;;;;10456516;28;20677;-74
2022/03/25 05:43:41;;;;;;;9.27;3.63;;;;;;;;;;10448245;28;20036;-71
2022/03/25 05:48:44;;;;;;;;;;;;;;;;;;10444321;28;20037;-74
2022/03/25 05:53:46;;;;;;;10.20;4.53;;;;;;;;;;10465803;28;20307;-75
2022/03/25 05:58:51;;;;;;;12.23;4.50;;;;;;;;;;10440539;28;20072;-75
2022/03/25 06:03:54;;;;;;;13.35;5.40;;;;;;;;;;10459579;28;20033;-74
2022/03/25 06:08:57;;;;;;;13.48;4.70;;;;;;;;;;10454094;28;20075;-75
2022/03/25 06:14:01;;;;;;;9.90;4.03;;;;;;;;;;10462840;28;20488;-72
2022/03/25 06:19:04;;;;;;;15.85;5.00;;;;;;;;;;10460620;28;20058;-74
2022/03/25 06:24:08;;;;;;;18.23;5.25;;;;;;;;;;10453548;28;20099;-74
2022/03/25 06:29:13;;;;;;;17.33;5.07;;;;;;;;;;10456724;28;20472;-74
2022/03/25 06:34:20;;;;;;;14.82;4.97;;;;;;;;;;10452638;28;20066;-73
2022/03/25 06:39:23;;;;;;;15.02;5.80;;;;;;;;;;10460182;28;20037;-73
2022/03/25 06:44:28;;;;;;;13.05;5.57;;;;;;;;;;10461135;28;20044;-74
2022/03/25 06:49:32;;;;;;;13.80;5.97;;;;;;;;;;10451155;28;20510;-72
2022/03/25 06:54:35;;;;;;;13.07;5.70;;;;;;;;;;10455914;28;20028;-75
2022/03/25 06:59:41;;;;;;;17.60;6.97;;;;;;;;;;10447113;28;20413;-74
2022/03/25 07:04:44;;;;;;;15.85;7.00;;;;;;;;;;10445795;28;20068;-74
2022/03/25 07:09:48;;;;;;;15.32;7.57;;;;;;;;;;10440541;28;20045;-76
2022/03/25 07:14:52;;;;;;;18.73;7.95;;;;;;;;;;10443879;28;20036;-75
2022/03/25 07:19:55;;;;;;;18.08;8.98;;;;;;;;;;10439545;28;20041;-74
2022/03/25 07:24:58;;;;;;;19.60;9.20;;;;;;;;;;10445563;28;20036;-75
2022/03/25 07:30:03;;;;;;;19.15;10.18;;;;;;;;;;10439784;28;20081;-74
2022/03/25 07:35:07;;;;;;;22.35;11.32;;;;;;;;;;10449171;28;20041;-73
2022/03/25 07:40:11;;;;;;;25.02;13.25;;;;;;;;;;10447755;28;20056;-74
2022/03/25 07:45:15;;;;;;;26.80;13.68;;;;;;;;;;10446442;28;20280;-73
2022/03/25 07:50:19;;;;;;;28.17;12.77;;;;;;;;;;10449872;28;20104;-75
2022/03/25 07:55:22;;;;;;;24.38;13.20;;;;;;;;;;10453205;28;20040;-75
2022/03/25 08:00:26;;;;;;;20.33;12.90;;;;;;;;;;10439549;28;20060;-73
2022/03/25 08:05:29;;;;;;;22.70;13.30;;;;;;;;;;10479276;22;20040;-73
2022/03/25 08:10:32;;;;;;;23.88;12.80;;;;;;;;;;10521846;28;20044;-74
2022/03/25 08:15:37;;;;;;;26.63;14.70;;;;;;;;;;10524045;28;20459;-74
2022/03/25 08:20:41;;;;;;;23.38;14.32;;;;;;;;;;10530680;28;20389;-74
2022/03/25 08:31:05;;;;;;;22.80;14.87;;;;;;;;;;10517547;28;20412;-74
2022/03/25 08:36:08;;;;;;;27.05;15.10;;;;;;;;;;10513277;28;20296;-74
2022/03/25 08:41:11;;;;;;;24.95;15.15;;;;;;;;;;10525894;28;20036;-73
2022/03/25 08:46:16;;;;;;;22.13;16.05;;;;;;;;;;10524231;28;20035;-75
2022/03/25 08:51:19;;;;;;;23.35;15.30;;;;;;;;;;10516473;28;20047;-75
2022/03/25 08:56:24;;;;;;;25.85;16.50;;;;;;;;;;10527330;28;20036;-76
2022/03/25 09:01:28;;;;;;;27.77;16.90;;;;;;;;;;10528866;28;20477;-75
2022/03/25 09:06:32;;;;;;;25.73;17.13;;;;;;;;;;10523937;28;20036;-74
2022/03/25 09:11:37;;;;;;;22.92;16.95;;;;;;;;;;10525751;28;20350;-75
2022/03/25 09:16:41;;;;;;;28.70;17.75;;;;;;;;;;10528932;28;20032;-75
2022/03/25 09:21:44;;;;;;;27.15;17.90;;;;;;;;;;10525730;28;20113;-75
2022/03/25 09:26:47;;;;;;;26.20;17.83;;;;;;;;;;10526638;28;20428;-75
2022/03/25 09:31:51;;;;;;;30.95;19.05;;;;;;;;;;10519217;28;20067;-74
2022/03/25 09:37:14;;;;;;;30.27;19.00;;;;;;;;;;10516976;28;20040;-74
2022/03/25 09:42:19;;;;;;;30.00;18.88;;;;;;;;;;10526607;28;20054;-75
2022/03/25 09:47:23;;;;;;;24.58;18.55;;;;;;;;;;10514591;28;20272;-75
2022/03/25 09:52:29;;;;;;;25.73;19.02;;;;;;;;;;10519664;28;20119;-74
2022/03/25 09:57:50;;;;;;;29.88;20.08;;;;;;;;;;10520755;28;20028;-75
2022/03/25 10:02:54;;;;;;;25.88;19.30;;;;;;;;;;10518846;28;20063;-74
2022/03/25 10:07:58;;;;;;;30.75;21.20;;;;;;;;;;10527837;28;20032;-75
2022/03/25 10:13:04;;;;;;;28.05;19.25;;;;;;;;;;10520318;28;20511;-75
2022/03/25 10:18:09;;;;;;;26.27;19.48;;;;;;;;;;10521736;28;20131;-73
2022/03/25 10:23:14;;;;;;;25.85;18.33;;;;;;;;;;10521486;28;20131;-74
2022/03/25 10:28:28;;;;;;;27.52;19.15;;;;;;;;;;10516559;28;20076;-74
2022/03/25 10:33:34;;;;;;;27.65;20.02;;;;;;;;;;10518033;28;20132;-75
2022/03/25 10:38:41;;;;;;;28.17;19.25;;;;;;;;;;10512750;28;20032;-75
2022/03/25 10:44:03;;;;;;;26.38;20.52;;;;;;;;;;10532298;28;20044;-75
2022/03/25 10:49:09;;;;;;;26.92;19.15;;;;;;;;;;10516894;28;20407;-75
2022/03/25 10:54:13;;;;;;;26.80;18.85;;;;;;;;;;10518766;28;20044;-74
2022/03/25 10:59:23;;;;;;;28.35;18.98;;;;;;;;;;10520228;28;20270;-73
2022/03/25 11:04:28;;;;;;;35.83;20.10;;;;;;;;;;10519274;28;20076;-74
2022/03/25 11:09:31;;;;;;;29.23;20.23;;;;;;;;;;10522034;28;20097;-75
2022/03/25 11:14:35;;;;;;;27.83;19.23;;;;;;;;;;10526150;28;20029;-74
2022/03/25 11:19:39;;;;;;;27.85;18.38;;;;;;;;;;10519709;28;20440;-74
2022/03/25 11:24:46;;;;;;;27.80;18.83;;;;;;;;;;10526137;28;20136;-74
2022/03/25 11:29:50;;;;;;;26.05;18.55;;;;;;;;;;10517573;28;20064;-73
2022/03/25 11:35:08;;;;;;;27.25;20.00;;;;;;;;;;10515734;28;20050;-75
2022/03/25 11:40:27;;;;;;;26.35;19.27;;;;;;;;;;10523652;28;20044;-74
2022/03/25 11:45:36;;;;;;;26.75;17.95;;;;;;;;;;10515052;28;20492;-75
2022/03/25 11:50:40;;;;;;;25.25;17.95;;;;;;;;;;10526211;28;20471;-74
2022/03/25 11:56:00;;;;;;;23.83;18.08;;;;;;;;;;10518278;28;20042;-74
2022/03/25 12:01:05;;;;;;;25.42;17.08;;;;;;;;;;10516276;28;20078;-73
2022/03/25 12:06:09;;;;;;;33.42;17.10;;;;;;;;;;10521390;28;20436;-74
2022/03/25 12:11:13;;;;;;;24.95;16.90;;;;;;;;;;10512573;28;20100;-74
2022/03/25 12:16:31;;;;;;;34.97;18.08;;;;;;;;;;10521413;28;20454;-74
2022/03/25 12:21:45;;;;;;;28.27;17.67;;;;;;;;;;10518136;28;20056;-75
2022/03/25 12:26:54;;;;;;;30.13;16.92;;;;;;;;;;10521443;28;20463;-74
2022/03/25 12:31:58;;;;;;;27.65;17.50;;;;;;;;;;10528255;28;20487;-75
2022/03/25 12:37:03;;;;;;;121.00;25.63;;;;;;;;;;10530008;28;20039;-73
2022/03/25 12:42:11;;;;;;;45.22;17.92;;;;;;;;;;10523429;28;20036;-75
2022/03/25 12:47:16;;;;;;;25.23;15.40;;;;;;;;;;10528493;28;20039;-74
2022/03/25 12:52:24;;;;;;;21.35;14.07;;;;;;;;;;10514463;28;20032;-73
2022/03/25 12:57:31;;;;;;;23.58;14.88;;;;;;;;;;10502887;28;20569;-74
2022/03/25 13:02:35;;;;;;;24.20;14.52;;;;;;;;;;10518627;28;20059;-74
2022/03/25 13:07:43;;;;;;;24.40;14.07;;;;;;;;;;10516114;28;20064;-75
2022/03/25 13:12:50;;;;;;;20.58;13.52;;;;;;;;;;10518451;28;20063;-74
2022/03/25 13:17:54;;;;;;;23.73;15.50;;;;;;;;;;10514108;28;20415;-73
2022/03/25 13:23:04;;;;;;;20.40;12.70;;;;;;;;;;10516325;28;20051;-73
2022/03/25 13:28:07;;;;;;;20.58;12.65;;;;;;;;;;10514899;28;20616;-74
2022/03/25 13:33:11;;;;;;;25.02;14.68;;;;;;;;;;10513705;28;20507;-73
2022/03/25 13:38:17;;;;;;;24.80;13.63;;;;;;;;;;10512165;28;20047;-73
2022/03/25 13:43:21;;;;;;;25.70;15.73;;;;;;;;;;10522538;28;20073;-74
2022/03/25 13:48:24;;;;;;;21.65;12.20;;;;;;;;;;10520228;28;20051;-74
2022/03/25 13:53:35;;;;;;;22.17;12.90;;;;;;;;;;10532513;28;20089;-74
2022/03/25 13:58:40;;;;;;;22.98;12.80;;;;;;;;;;10536547;28;20500;-74
2022/03/25 14:03:43;;;;;;;27.45;13.88;;;;;;;;;;10527030;28;20042;-73
2022/03/25 14:08:49;;;;;;;27.90;13.98;;;;;;;;;;10504613;22;20055;-72
2022/03/25 14:13:56;;;;;;;26.33;13.75;;;;;;;;;;10482131;28;20040;-73
2022/03/25 14:18:59;;;;;;;21.60;11.80;;;;;;;;;;10445009;28;20536;-71
2022/03/25 14:29:24;;;;;;;25.80;13.70;;;;;;;;;;10426610;28;20041;-73
2022/03/25 14:34:27;;;;;;;30.75;13.95;;;;;;;;;;10440722;28;20037;-74
2022/03/25 14:39:31;;;;;;;25.73;13.15;;;;;;;;;;10425355;28;20029;-73
2022/03/25 14:44:35;;;;;;;25.67;12.93;;;;;;;;;;10423966;28;20061;-74
2022/03/25 14:49:46;;;;;;;27.73;13.10;;;;;;;;;;10430152;28;20397;-74
2022/03/25 14:54:56;;;;;;;26.30;13.50;;;;;;;;;;10423924;28;20048;-73
2022/03/25 14:59:59;;;;;;;26.48;13.80;;;;;;;;;;10424055;28;20512;-74
2022/03/25 15:05:02;;;;;;;;;;;;;;;;;;10431055;28;20044;-73
2022/03/25 15:10:09;;;;;;;22.52;11.50;;;;;;;;;;10432595;28;19964;-75
2022/03/25 15:15:12;;;;;;;24.45;11.63;;;;;;;;;;10417007;28;20033;-72
2022/03/25 15:20:15;;;;;;;27.77;12.95;;;;;;;;;;10424065;28;20126;-71
2022/03/25 15:25:19;;;;;;;25.23;12.02;;;;;;;;;;10418551;28;20569;-73
2022/03/25 15:35:43;;;;;;;27.23;12.90;;;;;;;;;;10424650;28;20033;-73
2022/03/25 15:41:05;;;;;;;;;;;;;;;;;;10427917;28;20315;-73
2022/03/25 15:46:10;;;;;;;26.45;12.45;;;;;;;;;;10424106;28;19932;-73
2022/03/25 15:51:13;;;;;;;28.50;11.82;;;;;;;;;;10431398;28;20041;-74
2022/03/25 15:56:16;;;;;;;25.52;11.35;;;;;;;;;;10426458;28;20057;-72
2022/03/25 16:01:20;;;;;;;24.05;11.93;;;;;;;;;;10427248;28;20072;-72
2022/03/25 16:06:24;;;;;;;23.58;11.48;;;;;;;;;;10420673;28;20493;-72
2022/03/25 16:11:27;;;;;;;26.05;12.00;;;;;;;;;;10428185;28;20040;-73
2022/03/25 16:16:32;;;;;;;26.08;11.55;;;;;;;;;;10413766;28;20036;-73
2022/03/25 16:21:36;;;;;;;25.88;11.07;;;;;;;;;;10423800;28;20140;-72
2022/03/25 16:26:38;;;;;;;;;;;;;;;;;;10419010;28;20516;-73
2022/03/25 16:31:43;;;;;;;28.48;12.10;;;;;;;;;;10421161;28;19924;-74
2022/03/25 16:36:46;;;;;;;27.63;10.85;;;;;;;;;;10414074;28;20063;-71
2022/03/25 16:41:50;;;;;;;24.13;10.85;;;;;;;;;;10419304;28;20128;-72
2022/03/25 16:46:56;;;;;;;29.73;11.25;;;;;;;;;;10424061;28;20111;-74
2022/03/25 16:52:12;;;;;;;24.30;10.07;;;;;;;;;;10427017;28;20060;-73
2022/03/25 16:57:15;;;;;;;22.13;10.35;;;;;;;;;;10418765;28;20041;-73
2022/03/25 17:02:19;;;;;;;27.15;10.00;;;;;;;;;;10421844;28;20103;-74
2022/03/25 17:07:22;;;;;;;23.98;11.13;;;;;;;;;;10423442;28;20037;-74
2022/03/25 17:12:26;;;;;;;27.02;10.40;;;;;;;;;;10438000;28;20041;-73
2022/03/25 17:17:30;;;;;;;21.75;10.38;;;;;;;;;;10424905;28;20057;-74
2022/03/25 17:22:35;;;;;;;26.15;10.85;;;;;;;;;;10416513;28;20053;-72
2022/03/25 17:27:38;;;;;;;20.65;9.77;;;;;;;;;;10435511;28;20108;-74
2022/03/25 17:32:43;;;;;;;35.30;14.98;;;;;;;;;;10426059;28;20095;-74
2022/03/25 17:37:46;;;;;;;28.45;11.48;;;;;;;;;;10423075;28;20044;-74
2022/03/25 17:42:49;;;;;;;23.63;9.73;;;;;;;;;;10434870;28;20317;-73
2022/03/25 17:47:54;;;;;;;28.45;11.10;;;;;;;;;;10441647;28;20132;-72
2022/03/25 17:52:58;;;;;;;28.67;10.77;;;;;;;;;;10427617;28;20069;-75
2022/03/25 17:58:01;;;;;;;24.98;10.02;;;;;;;;;;10430405;28;20083;-73
2022/03/25 18:03:06;;;;;;;27.65;11.25;;;;;;;;;;10430692;28;20044;-72
2022/03/25 18:08:10;;;;;;;30.42;11.35;;;;;;;;;;10432182;28;20045;-73
2022/03/25 18:13:14;;;;;;;23.08;10.00;;;;;;;;;;10428123;28;20244;-72
2022/03/25 18:18:18;;;;;;;29.03;11.50;;;;;;;;;;10442810;28;20065;-74
2022/03/25 18:23:21;;;;;;;28.88;11.15;;;;;;;;;;10434687;28;20041;-72
2022/03/25 18:28:25;;;;;;;32.30;13.20;;;;;;;;;;10421406;28;20037;-74
2022/03/25 18:33:30;;;;;;;29.33;11.65;;;;;;;;;;10424182;28;20041;-73
2022/03/25 18:38:33;;;;;;;29.00;10.73;;;;;;;;;;10428430;28;20029;-74
2022/03/25 18:43:36;;;;;;;34.38;11.07;;;;;;;;;;10418222;28;20041;-72
2022/03/25 18:48:41;;;;;;;30.83;10.70;;;;;;;;;;10427091;28;20029;-71
2022/03/25 18:53:44;;;;;;;30.80;10.48;;;;;;;;;;10414846;28;20045;-74
2022/03/25 18:58:47;;;;;;;30.37;11.00;;;;;;;;;;10420785;28;20037;-74
2022/03/25 19:03:52;;;;;;;32.53;13.57;;;;;;;;;;10422556;28;20303;-73
2022/03/25 19:08:56;;;;;;;29.38;10.90;;;;;;;;;;10426799;28;20033;-73
2022/03/25 19:13:59;;;;;;;27.57;11.40;;;;;;;;;;10429407;28;20037;-74
2022/03/25 19:19:05;;;;;;;25.67;10.48;;;;;;;;;;10428028;28;20735;-72
2022/03/25 19:24:11;;;;;;;27.48;10.52;;;;;;;;;;10423965;28;20244;-74
2022/03/25 19:29:14;;;;;;;27.85;10.63;;;;;;;;;;10429695;28;20391;-71
2022/03/25 19:34:18;;;;;;;30.33;11.48;;;;;;;;;;10420548;28;20099;-73
2022/03/25 19:39:21;;;;;;;32.10;12.95;;;;;;;;;;10430144;28;20041;-70
2022/03/25 19:44:25;;;;;;;28.38;11.38;;;;;;;;;;10423422;28;20033;-73
2022/03/25 19:49:30;;;;;;;28.95;10.90;;;;;;;;;;10423319;28;20064;-73
2022/03/25 19:54:33;;;;;;;28.63;10.77;;;;;;;;;;10417533;28;20647;-73
2022/03/25 19:59:35;;;;;;;29.30;11.63;;;;;;;;;;10421911;28;20036;-71
2022/03/25 20:04:41;;;;;;;32.70;11.02;;;;;;;;;;10423641;28;20069;-72
2022/03/25 20:09:45;;;;;;;28.85;11.15;;;;;;;;;;10551921;22;20049;-76
2022/03/25 20:14:48;;;;;;;30.92;11.68;;;;;;;;;;10601736;27;20047;-75
2022/03/25 20:19:52;;;;;;;37.13;11.77;;;;;;;;;;10554492;27;20055;-77
2022/03/25 20:24:55;;;;;;;29.65;10.27;;;;;;;;;;10549401;27;20036;-76
2022/03/25 20:29:58;;;;;;;37.47;11.55;;;;;;;;;;10540432;28;20063;-76
2022/03/25 20:35:03;;;;;;;28.83;10.75;;;;;;;;;;10565041;28;20031;-76
2022/03/25 20:40:07;;;;;;;32.08;11.35;;;;;;;;;;10548148;28;20088;-76
2022/03/25 20:45:10;;;;;;;30.65;11.20;;;;;;;;;;10566796;28;20047;-76
2022/03/25 20:50:15;;;;;;;32.20;11.30;;;;;;;;;;10557305;28;20130;-75
2022/03/25 20:55:17;;;;;;;30.48;11.13;;;;;;;;;;10574509;27;20074;-75
2022/03/25 21:00:20;;;;;;;33.90;11.68;;;;;;;;;;10556026;27;20089;-77
2022/03/25 21:05:25;;;;;;;30.25;11.98;;;;;;;;;;10567027;27;20043;-76
2022/03/25 21:10:27;;;;;;;46.42;15.45;;;;;;;;;;10560596;27;20044;-76
2022/03/25 21:15:30;;;;;;;39.05;12.98;;;;;;;;;;10551740;27;20043;-76
2022/03/25 21:20:37;;;;;;;29.97;11.97;;;;;;;;;;10560389;27;20485;-76
2022/03/25 21:25:40;;;;;;;35.53;12.20;;;;;;;;;;10547434;27;20104;-76
2022/03/25 21:30:44;;;;;;;35.08;11.70;;;;;;;;;;10547180;27;20047;-76
2022/03/25 21:35:48;;;;;;;35.40;11.95;;;;;;;;;;10574596;27;20032;-75
2022/03/25 21:40:51;;;;;;;37.53;11.38;;;;;;;;;;10561749;27;20099;-76
2022/03/25 21:45:54;;;;;;;33.53;12.40;;;;;;;;;;10557068;27;20047;-75
2022/03/25 21:50:59;;;;;;;37.93;11.83;;;;;;;;;;10570438;27;20040;-75
2022/03/25 21:56:03;;;;;;;34.17;11.50;;;;;;;;;;10569242;27;20473;-76
2022/03/25 22:01:06;;;;;;;35.77;11.73;;;;;;;;;;10581549;27;20036;-74
2022/03/25 22:06:10;;;;;;;32.05;12.18;;;;;;;;;;10604870;27;20737;-76
2022/03/25 22:11:13;;;;;;;40.17;12.27;;;;;;;;;;10586620;27;20059;-74
2022/03/25 22:16:16;;;;;;;30.70;11.35;;;;;;;;;;10573102;27;20040;-75
2022/03/25 22:21:20;;;;;;;36.38;12.43;;;;;;;;;;10583438;27;20054;-75
2022/03/25 22:26:23;;;;;;;34.45;11.93;;;;;;;;;;10566863;27;20040;-76
2022/03/25 22:31:26;;;;;;;36.97;12.57;;;;;;;;;;10571456;27;20082;-76
2022/03/25 22:36:46;;;;;;;35.15;12.25;;;;;;;;;;10587628;27;20036;-75
2022/03/25 22:41:49;;;;;;;37.00;12.43;;;;;;;;;;10549868;27;20239;-75
2022/03/25 22:46:52;;;;;;;37.42;12.98;;;;;;;;;;10565525;27;20142;-75
2022/03/25 22:51:56;;;;;;;;;;;;;;;;;;10550962;27;20433;-74
2022/03/25 22:57:02;;;;;;;47.45;16.08;;;;;;;;;;10552056;27;19923;-75
2022/03/25 23:02:05;;;;;;;50.88;15.85;;;;;;;;;;10549385;27;20046;-75
2022/03/25 23:07:08;;;;;;;49.37;15.30;;;;;;;;;;10565810;27;20066;-74
2022/03/25 23:12:13;;;;;;;48.65;14.27;;;;;;;;;;10548669;27;20294;-74
2022/03/25 23:17:16;;;;;;;48.55;15.73;;;;;;;;;;10559199;27;20089;-76
2022/03/25 23:22:19;;;;;;;49.90;15.80;;;;;;;;;;10563037;27;20535;-76
2022/03/25 23:27:23;;;;;;;46.28;15.10;;;;;;;;;;10548036;27;20387;-76
2022/03/25 23:32:26;;;;;;;63.47;20.35;;;;;;;;;;10556956;27;20044;-77
2022/03/25 23:37:30;;;;;;;41.22;15.32;;;;;;;;;;10569331;27;20701;-76
2022/03/25 23:42:35;;;;;;;53.03;16.60;;;;;;;;;;10560067;27;20515;-76
2022/03/25 23:47:38;;;;;;;48.45;14.52;;;;;;;;;;10563519;27;20066;-75
2022/03/25 23:52:41;;;;;;;43.80;13.57;;;;;;;;;;10563743;27;20044;-76
2022/03/25 23:57:46;;;;;;;37.67;12.82;;;;;;;;;;10546065;27;20469;-75
